Time;durP1;ratioP1;P1;durP2;ratioP2;P2;SDS_P1;SDS_P2;PMS_P1;PMS_P2;Temp;Humidity;BMP_temperature;BMP_pressure;BME280_temperature;BME280_humidity;BME280_pressure;Samples;Min_cycle;Max_cycle;Signal;HPM_P1;HPM_P2
2022/01/16 00:05:06;;;;;;;28.02;15.63;;;;;;;7.22;59.24;100877.44;5015060;28;20048;-72
2022/01/16 00:07:31;;;;;;;22.80;15.88;;;;;;;7.17;59.87;100904.47;5013427;28;20121;-72
2022/01/16 00:09:57;;;;;;;26.50;17.15;;;;;;;7.13;60.09;100931.94;5013433;28;20038;-72
2022/01/16 00:12:23;;;;;;;23.20;17.45;;;;;;;7.02;60.34;100909.28;5013360;28;20026;-72
2022/01/16 00:14:51;;;;;;;21.33;14.57;;;;;;;7.07;60.27;100867.63;5013642;28;20034;-72
2022/01/16 00:17:16;;;;;;;23.33;15.18;;;;;;;6.98;60.56;100857.72;5013891;28;20068;-72
2022/01/16 00:19:42;;;;;;;19.77;13.82;;;;;;;6.99;60.64;100892.53;5013334;28;20061;-72
2022/01/16 00:22:13;;;;;;;20.83;14.57;;;;;;;7.11;60.21;100884.41;5013263;28;20092;-72
2022/01/16 00:24:39;;;;;;;22.90;15.07;;;;;;;6.81;59.57;100909.06;5013645;28;20380;-72
2022/01/16 00:27:05;;;;;;;26.00;14.82;;;;;;;7.17;58.89;100957.03;5029653;28;20045;-72
2022/01/16 00:29:34;;;;;;;23.42;13.80;;;;;;;7.16;58.71;100917.47;5029880;28;20033;-72
2022/01/16 00:32:00;;;;;;;19.13;11.70;;;;;;;7.19;58.62;100933.47;5013427;28;20109;-72
2022/01/16 00:34:25;;;;;;;22.40;10.68;;;;;;;7.25;58.17;100862.97;5012555;28;20128;-72
2022/01/16 00:36:56;;;;;;;17.05;11.40;;;;;;;7.32;57.47;100834.78;5012921;28;20062;-72
2022/01/16 00:39:21;;;;;;;16.60;11.07;;;;;;;7.40;57.06;100825.66;5012844;28;20072;-72
2022/01/16 00:41:47;;;;;;;18.23;10.80;;;;;;;7.34;57.74;100827.78;5012763;28;20053;-72
2022/01/16 00:44:15;;;;;;;15.65;11.02;;;;;;;7.30;57.86;100826.81;5012073;28;20069;-72
2022/01/16 00:46:40;;;;;;;14.75;10.43;;;;;;;7.22;58.14;100829.56;5029856;28;20120;-72
2022/01/16 00:49:06;;;;;;;12.95;9.05;;;;;;;7.19;58.33;100855.97;5028724;28;20140;-72
2022/01/16 00:51:31;;;;;;;11.40;8.27;;;;;;;7.25;56.40;100878.75;5029289;28;20026;-72
2022/01/16 00:53:57;;;;;;;16.23;9.10;;;;;;;7.26;55.99;100905.28;5028903;28;20029;-72
2022/01/16 00:56:23;;;;;;;12.88;8.05;;;;;;;7.27;55.70;100909.69;5012786;28;20404;-72
2022/01/16 00:58:51;;;;;;;15.35;8.52;;;;;;;7.34;55.49;100923.84;5012800;28;20393;-72
2022/01/16 01:01:20;;;;;;;11.32;7.65;;;;;;;7.38;55.70;100944.22;5030017;28;20026;-72
2022/01/16 01:03:45;;;;;;;9.93;6.82;;;;;;;7.31;54.81;100950.25;5014079;28;20087;-72
2022/01/16 01:06:11;;;;;;;8.95;6.40;;;;;;;7.27;54.77;100938.19;5013786;28;20037;-73
2022/01/16 01:08:38;;;;;;;10.48;6.00;;;;;;;7.40;54.76;100916.22;5014969;28;20113;-72
2022/01/16 01:11:12;;;;;;;10.85;7.00;;;;;;;7.46;54.79;100917.72;5015506;28;20033;-73
2022/01/16 01:14:14;;;;;;;11.20;7.30;;;;;;;7.45;54.54;100921.59;5029289;28;20030;-72
2022/01/16 01:16:51;;;;;;;11.55;6.78;;;;;;;7.40;55.06;100907.91;5012583;28;20037;-72
2022/01/16 01:19:20;;;;;;;10.30;6.88;;;;;;;7.50;53.80;100935.28;5012603;28;20034;-72
2022/01/16 01:21:46;;;;;;;16.55;6.20;;;;;;;7.40;53.51;100932.81;5028762;28;20022;-72
2022/01/16 01:24:12;;;;;;;9.48;6.22;;;;;;;7.54;53.38;100952.88;5012379;28;20030;-72
2022/01/16 01:26:47;;;;;;;8.15;5.72;;;;;;;7.60;53.10;100962.66;5013075;28;20037;-72
2022/01/16 01:29:17;;;;;;;14.25;6.32;;;;;;;7.53;53.14;100967.88;5028873;28;20030;-73
2022/01/16 01:31:43;;;;;;;8.77;6.07;;;;;;;7.57;53.23;100966.09;5028468;28;20489;-72
2022/01/16 01:34:08;;;;;;;10.20;6.28;;;;;;;7.55;52.70;100960.06;5011920;28;20037;-72
2022/01/16 01:36:34;;;;;;;8.52;5.72;;;;;;;7.55;52.65;100960.06;5012432;28;20044;-72
2022/01/16 01:39:00;;;;;;;7.55;4.70;;;;;;;7.62;52.38;100965.94;5028714;28;20026;-72
2022/01/16 01:41:29;;;;;;;6.40;4.95;;;;;;;7.60;51.95;100973.75;5012312;28;20037;-72
2022/01/16 01:52:10;;;;;;;8.45;5.45;;;;;;;7.56;52.03;100978.28;5013664;28;20071;-72
2022/01/16 01:54:36;;;;;;;8.98;4.93;;;;;;;7.59;51.26;100966.59;5013199;28;20034;-73
2022/01/16 01:57:01;;;;;;;6.10;4.35;;;;;;;7.51;52.12;100979.28;5014141;28;20037;-72
2022/01/16 01:59:27;;;;;;;10.13;5.88;;;;;;;7.49;51.82;100983.50;5012004;28;20030;-73
2022/01/16 02:01:53;;;;;;;8.43;4.95;;;;;;;7.52;52.05;100972.59;5031530;28;20084;-72
2022/01/16 02:04:19;;;;;;;7.88;5.60;;;;;;;7.54;52.44;100972.28;5032123;28;20026;-72
2022/01/16 02:06:47;;;;;;;7.68;5.85;;;;;;;7.55;52.40;100943.44;5015631;28;20140;-72
2022/01/16 02:09:13;;;;;;;7.82;5.45;;;;;;;7.67;51.83;100957.47;5015655;28;20392;-72
2022/01/16 02:11:41;;;;;;;10.43;7.15;;;;;;;7.63;51.63;100961.22;5015866;28;20026;-72
2022/01/16 02:30:56;;;;;;;7.90;5.82;;;;;;;6.95;55.54;100969.00;5016944;28;20531;-72
2022/01/16 02:35:42;;;;;;;6.22;5.03;;;;;;;6.85;56.08;100933.34;5016402;28;20077;-71
2022/01/16 02:38:09;;;;;;;7.53;5.18;;;;;;;6.80;56.97;100935.09;5031609;28;20036;-72
2022/01/16 02:40:36;;;;;;;9.40;5.97;;;;;;;6.77;57.12;100946.81;5031876;28;20030;-73
2022/01/16 02:43:03;;;;;;;9.45;6.35;;;;;;;6.77;56.60;100933.00;5015043;28;20116;-72
2022/01/16 02:45:31;;;;;;;9.27;6.82;;;;;;;6.78;55.99;100934.63;5014990;28;20034;-72
2022/01/16 02:48:09;;;;;;;9.07;6.40;;;;;;;6.83;55.37;100928.94;5015072;28;20061;-72
2022/01/16 02:50:37;;;;;;;9.13;5.30;;;;;;;6.80;55.44;100926.00;5031431;28;20034;-72
2022/01/16 02:53:09;;;;;;;8.55;5.80;;;;;;;6.86;55.75;100932.19;5015306;28;20145;-72
2022/01/16 02:55:39;;;;;;;6.93;5.28;;;;;;;6.70;56.05;100896.66;5014988;28;20030;-72
2022/01/16 02:58:07;;;;;;;7.88;4.97;;;;;;;6.85;57.51;100927.81;5031609;28;20053;-72
2022/01/16 03:00:33;;;;;;;5.72;5.10;;;;;;;6.75;58.61;100938.00;5014851;28;20103;-72
2022/01/16 03:03:01;;;;;;;5.78;4.63;;;;;;;6.77;58.39;100937.72;5014679;28;20473;-72
2022/01/16 03:05:27;;;;;;;9.70;6.18;;;;;;;6.67;58.30;100930.50;5014532;28;20040;-72
2022/01/16 03:07:52;;;;;;;10.73;6.90;;;;;;;6.57;57.96;100928.00;5014588;28;20026;-72
2022/01/16 03:12:50;;;;;;;92.97;65.13;;;;;;;6.51;57.36;100935.63;5015415;28;20034;-72
2022/01/16 03:15:17;;;;;;;90.72;59.53;;;;;;;6.37;59.00;100942.38;5030785;28;20381;-72
2022/01/16 03:21:53;;;;;;;56.40;30.70;;;;;;;6.32;59.36;100942.50;5014351;28;20454;-72
2022/01/16 03:23:24;;;;;;;45.13;23.85;;;;;;;6.45;57.57;100919.50;5016014;28;20539;-73
2022/01/16 03:25:51;;;;;;;26.85;17.08;;;;;;;6.40;59.29;100955.56;5030822;28;20149;-72
2022/01/16 03:28:18;;;;;;;22.77;13.40;;;;;;;6.28;59.68;100964.41;5014322;28;20378;-72
2022/01/16 03:30:46;;;;;;;19.70;12.60;;;;;;;6.21;59.07;100955.75;5030401;28;20062;-72
2022/01/16 03:33:12;;;;;;;18.83;11.73;;;;;;;6.18;59.88;100951.69;5014076;28;20068;-72
2022/01/16 03:35:39;;;;;;;12.43;8.20;;;;;;;6.20;59.56;100957.72;5030742;28;20430;-72
2022/01/16 03:38:05;;;;;;;10.15;7.60;;;;;;;6.12;60.16;100955.69;5030559;28;20030;-72
2022/01/16 03:40:31;;;;;;;8.10;5.97;;;;;;;6.10;60.75;100952.44;5014005;28;20121;-72
2022/01/16 03:43:04;;;;;;;10.15;6.18;;;;;;;6.08;60.67;100949.19;5030366;28;20465;-72
2022/01/16 03:45:30;;;;;;;13.05;8.90;;;;;;;6.10;60.58;100955.19;5013976;28;20103;-72
2022/01/16 03:47:58;;;;;;;14.23;9.82;;;;;;;5.99;60.58;100956.56;5014365;28;20533;-72
2022/01/16 03:50:24;;;;;;;15.88;11.95;;;;;;;6.08;60.51;100957.47;5013731;28;20034;-72
2022/01/16 03:52:49;;;;;;;17.50;13.63;;;;;;;6.01;60.84;100968.13;5030202;28;20022;-72
2022/01/16 03:55:15;;;;;;;28.75;25.65;;;;;;;5.96;60.39;100966.28;5014052;28;20068;-72
2022/01/16 03:57:41;;;;;;;23.80;20.98;;;;;;;5.98;60.55;100964.06;5013599;28;20037;-72
2022/01/16 04:00:08;;;;;;;29.88;23.75;;;;;;;5.92;61.18;100958.97;5030065;28;20061;-72
2022/01/16 04:02:34;;;;;;;36.70;28.17;;;;;;;5.96;60.36;100963.53;5029835;28;20034;-72
2022/01/16 04:04:59;;;;;;;22.85;15.32;;;;;;;5.92;60.82;100961.72;5013573;28;20044;-72
2022/01/16 04:07:30;;;;;;;18.88;13.43;;;;;;;5.85;60.89;100947.47;5013640;28;20029;-72
2022/01/16 04:09:56;;;;;;;27.45;17.38;;;;;;;5.83;61.01;100949.75;5013641;28;20073;-72
2022/01/16 04:12:24;;;;;;;37.42;24.50;;;;;;;5.78;61.63;100951.50;5029767;28;20061;-72
2022/01/16 04:17:23;;;;;;;31.95;22.75;;;;;;;5.88;61.83;100957.91;5014828;28;20104;-72
2022/01/16 04:19:50;;;;;;;39.22;21.90;;;;;;;5.65;61.42;100935.81;5014571;28;20026;-72
2022/01/16 04:22:20;;;;;;;40.17;25.45;;;;;;;5.75;62.44;100971.47;5014556;28;20022;-72
2022/01/16 04:24:46;;;;;;;45.92;27.98;;;;;;;5.77;62.37;100955.41;5012904;28;20030;-72
2022/01/16 04:27:13;;;;;;;41.65;26.85;;;;;;;5.70;62.66;100968.81;5030269;28;20033;-73
2022/01/16 04:29:42;;;;;;;42.05;26.15;;;;;;;5.52;62.73;100942.97;5014071;28;20038;-74
2022/01/16 04:32:08;;;;;;;34.90;23.15;;;;;;;5.69;62.57;100961.66;5015418;28;20108;-72
2022/01/16 04:34:34;;;;;;;33.25;22.85;;;;;;;5.65;62.52;100966.19;5012481;28;20057;-72
2022/01/16 04:37:01;;;;;;;41.10;23.67;;;;;;;5.61;63.34;100940.31;5013908;28;20482;-72
2022/01/16 04:39:35;;;;;;;34.50;22.63;;;;;;;5.63;63.43;100956.56;5012870;28;20072;-73
2022/01/16 04:44:46;;;;;;;43.17;25.65;;;;;;;5.53;63.48;100935.50;5013888;28;20064;-72
2022/01/16 04:47:12;;;;;;;33.90;23.77;;;;;;;5.64;63.22;100958.19;5014387;28;20041;-72
2022/01/16 04:49:37;;;;;;;31.70;21.90;;;;;;;5.67;63.00;100957.56;5012841;28;20469;-72
2022/01/16 04:52:03;;;;;;;37.22;23.02;;;;;;;5.62;63.44;100958.50;5012466;28;20060;-72
2022/01/16 04:54:31;;;;;;;43.03;25.65;;;;;;;5.62;63.44;100958.50;5029450;28;20026;-72
2022/01/16 04:56:57;;;;;;;37.15;24.17;;;;;;;5.44;63.25;100952.00;5014110;28;20030;-73
2022/01/16 04:59:22;;;;;;;42.78;25.65;;;;;;;5.56;63.78;100968.03;5012586;28;20056;-72
2022/01/16 05:01:48;;;;;;;38.67;24.67;;;;;;;5.54;64.29;100967.53;5012504;28;20449;-72
2022/01/16 05:04:14;;;;;;;38.28;26.23;;;;;;;5.47;64.85;100964.34;5028136;28;20034;-72
2022/01/16 05:06:42;;;;;;;33.72;23.42;;;;;;;5.55;63.91;100982.97;5012691;28;20034;-72
2022/01/16 05:09:08;;;;;;;27.25;18.50;;;;;;;5.45;64.09;100977.66;5012590;28;20029;-72
2022/01/16 05:11:37;;;;;;;33.75;19.92;;;;;;;5.25;64.89;100952.13;5012497;28;20030;-72
2022/01/16 05:16:41;;;;;;;21.08;13.32;;;;;;;5.41;64.63;100987.69;5013960;28;20129;-72
2022/01/16 05:19:12;;;;;;;19.17;12.93;;;;;;;5.36;64.20;100990.53;5012481;28;20037;-72
2022/01/16 05:21:42;;;;;;;17.02;11.70;;;;;;;5.37;64.29;100997.69;5029122;28;20070;-72
2022/01/16 05:24:10;;;;;;;15.93;10.90;;;;;;;5.29;64.76;100979.13;5012411;28;20034;-72
2022/01/16 05:26:43;;;;;;;13.80;11.05;;;;;;;5.40;64.47;100984.09;5029087;28;20037;-72
2022/01/16 05:29:11;;;;;;;16.52;11.07;;;;;;;5.43;64.06;101001.97;5028924;28;20030;-72
2022/01/16 05:31:36;;;;;;;14.32;11.10;;;;;;;5.31;64.65;100990.66;5027974;28;20103;-72
2022/01/16 05:34:02;;;;;;;19.17;13.82;;;;;;;5.40;64.96;100997.09;5012401;28;20034;-72
2022/01/16 05:36:28;;;;;;;23.63;16.15;;;;;;;5.44;64.88;100998.94;5031437;28;20092;-72
2022/01/16 05:38:54;;;;;;;23.10;14.07;;;;;;;5.46;64.40;100995.84;5033064;28;20038;-72
2022/01/16 05:41:21;;;;;;;15.68;12.55;;;;;;;5.56;65.03;100998.41;5032769;28;20025;-72
2022/01/16 05:43:48;;;;;;;17.70;12.75;;;;;;;5.60;65.19;100995.84;5017839;28;20474;-72
2022/01/16 05:46:17;;;;;;;22.40;14.70;;;;;;;5.47;65.21;100994.72;5016174;28;20127;-72
2022/01/16 05:48:42;;;;;;;29.48;17.85;;;;;;;5.42;65.78;100981.03;5015911;28;20176;-72
2022/01/16 05:51:09;;;;;;;22.08;15.57;;;;;;;5.78;64.15;101011.44;5033272;28;20477;-72
2022/01/16 05:53:37;;;;;;;22.00;15.07;;;;;;;5.57;64.67;101002.78;5016810;28;20392;-72
2022/01/16 05:56:02;;;;;;;19.77;14.27;;;;;;;5.51;65.67;101026.09;5016525;28;20053;-73
2022/01/16 05:58:30;;;;;;;21.45;14.25;;;;;;;5.46;66.19;101026.22;5032556;28;20397;-73
2022/01/16 06:00:59;;;;;;;19.67;14.43;;;;;;;5.48;66.04;101030.28;5016935;28;20046;-71
2022/01/16 06:03:25;;;;;;;28.02;17.05;;;;;;;5.53;66.51;101029.38;5016015;28;20030;-72
2022/01/16 06:05:51;;;;;;;29.98;21.58;;;;;;;5.59;65.92;101014.31;5015955;28;20140;-71
2022/01/16 06:08:17;;;;;;;29.02;19.27;;;;;;;5.57;66.83;101018.53;5015665;28;20037;-72
2022/01/16 06:10:42;;;;;;;27.40;17.70;;;;;;;5.59;67.39;101030.06;5014776;28;20030;-71
2022/01/16 06:13:08;;;;;;;29.55;19.75;;;;;;;5.55;67.66;101024.38;5015527;28;20374;-71
2022/01/16 06:15:35;;;;;;;27.77;17.35;;;;;;;5.59;67.92;101036.41;5015451;28;20027;-71
2022/01/16 06:18:01;;;;;;;24.58;18.35;;;;;;;5.57;67.76;101029.56;5032251;28;20037;-71
2022/01/16 06:20:27;;;;;;;26.73;18.10;;;;;;;5.57;68.04;101046.97;5015454;28;20057;-71
2022/01/16 06:22:53;;;;;;;28.25;18.52;;;;;;;5.60;68.98;101049.13;5031871;28;20029;-71
2022/01/16 06:25:20;;;;;;;27.20;17.73;;;;;;;5.64;68.54;101052.88;5015624;28;20030;-71
2022/01/16 06:27:46;;;;;;;30.33;20.02;;;;;;;5.45;68.53;101032.88;5015222;28;20026;-71
2022/01/16 06:30:12;;;;;;;26.10;18.85;;;;;;;5.39;68.21;101032.16;5015261;28;20046;-71
2022/01/16 06:32:38;;;;;;;32.13;21.02;;;;;;;5.61;69.13;101070.06;5031894;28;20519;-71
2022/01/16 06:35:08;;;;;;;40.67;24.55;;;;;;;5.86;68.78;101073.41;5032331;28;20034;-71
2022/01/16 06:37:34;;;;;;;40.03;24.75;;;;;;;6.32;67.12;101073.22;5014971;28;20040;-73
2022/01/16 06:40:02;;;;;;;33.03;22.65;;;;;;;6.90;66.02;101065.97;5032749;28;20033;-70
2022/01/16 06:42:31;;;;;;;33.55;24.63;;;;;;;7.30;63.49;101070.44;5015012;28;20033;-70
2022/01/16 06:44:57;;;;;;;32.78;21.33;;;;;;;7.75;62.09;101070.25;5015078;28;20034;-70
2022/01/16 06:47:23;;;;;;;26.95;17.80;;;;;;;8.13;60.19;101075.19;5014385;28;20072;-71
2022/01/16 06:49:52;;;;;;;24.80;17.98;;;;;;;8.44;58.54;101065.94;5014862;28;20038;-70
2022/01/16 06:52:17;;;;;;;24.30;18.33;;;;;;;8.82;57.27;101080.75;5014836;28;20026;-70
2022/01/16 06:54:43;;;;;;;22.25;15.85;;;;;;;9.13;55.87;101079.69;5015142;28;20044;-71
2022/01/16 06:57:08;;;;;;;24.90;17.80;;;;;;;9.41;53.89;101077.31;5014825;28;20094;-70
2022/01/16 06:59:38;;;;;;;28.60;18.95;;;;;;;9.89;54.42;101084.41;5031290;28;20030;-70
2022/01/16 07:02:04;;;;;;;29.60;23.25;;;;;;;10.40;53.36;101102.75;5015346;28;20060;-71
2022/01/16 07:04:30;;;;;;;30.98;21.73;;;;;;;10.90;52.33;101096.22;5032573;28;20030;-71
2022/01/16 07:06:56;;;;;;;43.20;33.60;;;;;;;11.13;53.81;101099.44;5015133;28;20037;-70
2022/01/16 07:09:24;;;;;;;33.85;24.40;;;;;;;11.53;52.42;101099.63;5014643;28;20033;-71
2022/01/16 07:11:52;;;;;;;30.90;22.10;;;;;;;11.99;50.56;101091.97;5014545;28;20117;-70
2022/01/16 07:14:18;;;;;;;25.35;19.48;;;;;;;12.23;50.21;101113.44;5014813;28;20528;-71
2022/01/16 07:16:43;;;;;;;21.65;18.30;;;;;;;12.67;50.12;101113.53;5014432;28;20121;-70
2022/01/16 07:19:11;;;;;;;24.80;17.15;;;;;;;13.10;48.09;101123.97;5031528;28;20033;-70
2022/01/16 07:21:37;;;;;;;25.73;17.67;;;;;;;13.33;47.33;101126.19;5015299;28;20022;-71
2022/01/16 07:24:03;;;;;;;25.33;16.90;;;;;;;13.40;47.44;101115.19;5014056;28;20091;-71
2022/01/16 07:26:28;;;;;;;19.55;15.30;;;;;;;13.78;44.18;101103.38;5015014;28;20034;-78
2022/01/16 07:28:56;;;;;;;20.27;14.75;;;;;;;14.79;42.96;101107.25;5038288;28;20041;-76
2022/01/16 07:31:22;;;;;;;25.02;16.15;;;;;;;15.30;41.64;101095.03;5018405;28;20077;-77
2022/01/16 07:33:47;;;;;;;24.88;16.42;;;;;;;15.77;39.70;101111.50;5018920;28;20036;-78
2022/01/16 07:36:13;;;;;;;18.25;14.00;;;;;;;16.02;39.34;101103.47;5017522;28;20121;-77
2022/01/16 07:38:38;;;;;;;21.90;15.93;;;;;;;15.82;38.43;101108.38;5017067;28;20021;-76
2022/01/16 07:41:04;;;;;;;21.55;14.85;;;;;;;16.11;37.86;101126.47;5016927;28;20066;-76
2022/01/16 07:43:30;;;;;;;18.60;13.52;;;;;;;16.53;37.34;101119.84;5016320;28;20481;-77
2022/01/16 07:45:55;;;;;;;15.98;12.95;;;;;;;16.69;37.64;101106.41;5016334;28;20037;-76
2022/01/16 07:48:21;;;;;;;16.90;12.88;;;;;;;17.13;36.07;101099.31;5017140;28;20101;-76
2022/01/16 07:50:47;;;;;;;14.73;12.18;;;;;;;17.23;35.65;101129.56;5015176;28;20106;-76
2022/01/16 07:53:12;;;;;;;18.17;11.52;;;;;;;17.61;34.93;101128.31;5031569;28;20116;-76
2022/01/16 07:55:38;;;;;;;18.23;13.70;;;;;;;17.66;35.33;101119.53;5014645;28;20105;-76
2022/01/16 07:58:04;;;;;;;19.08;14.18;;;;;;;17.79;34.47;101122.91;5013293;28;20041;-76
2022/01/16 08:00:30;;;;;;;16.02;13.27;;;;;;;17.73;34.92;101130.06;5014383;28;20053;-76
2022/01/16 08:02:57;;;;;;;16.10;13.48;;;;;;;17.53;35.17;101102.13;5013232;28;20026;-76
2022/01/16 08:05:24;;;;;;;21.25;15.57;;;;;;;17.93;34.90;101139.88;5013499;28;20389;-76
2022/01/16 08:07:49;;;;;;;20.77;15.80;;;;;;;18.18;34.69;101139.28;5013279;28;20111;-76
2022/01/16 08:10:15;;;;;;;18.05;13.80;;;;;;;18.21;34.21;101155.38;5013534;28;20061;-76
2022/01/16 08:12:41;;;;;;;16.55;12.50;;;;;;;18.38;33.75;101137.81;5012741;28;20480;-76
2022/01/16 08:15:08;;;;;;;17.92;12.98;;;;;;;17.88;33.63;101112.09;5011915;28;20135;-76
2022/01/16 08:17:36;;;;;;;16.38;11.73;;;;;;;17.72;33.89;101153.75;5012447;28;20060;-76
2022/01/16 08:20:09;;;;;;;16.50;11.55;;;;;;;18.15;33.48;101135.22;5029246;28;20034;-75
2022/01/16 08:22:35;;;;;;;13.43;9.57;;;;;;;18.16;32.39;101136.84;5012175;28;20029;-80
2022/01/16 08:25:05;;;;;;;11.18;9.52;;;;;;;18.47;33.14;101146.69;5012781;28;20029;-80
2022/01/16 08:27:31;;;;;;;13.50;10.13;;;;;;;18.18;32.92;101142.91;5012728;28;20036;-75
2022/01/16 08:29:57;;;;;;;10.73;8.68;;;;;;;18.15;33.71;101145.69;5012743;28;20046;-76
2022/01/16 08:32:22;;;;;;;10.93;8.65;;;;;;;18.30;33.01;101130.50;5012594;28;20037;-76
2022/01/16 08:34:48;;;;;;;13.63;11.40;;;;;;;17.78;33.79;101158.66;5012684;28;20040;-76
2022/01/16 08:37:14;;;;;;;10.88;9.07;;;;;;;17.56;33.67;101139.94;5012420;28;20022;-76
2022/01/16 08:39:39;;;;;;;11.57;7.70;;;;;;;17.73;34.25;101149.75;5012699;28;20030;-76
2022/01/16 08:42:05;;;;;;;12.32;8.25;;;;;;;17.65;35.12;101154.50;5012150;28;20022;-77
2022/01/16 08:44:33;;;;;;;12.90;9.70;;;;;;;18.16;34.01;101147.28;5013209;28;20073;-76
2022/01/16 08:46:59;;;;;;;10.65;8.80;;;;;;;18.17;34.42;101144.09;5012010;28;20022;-75
2022/01/16 08:49:25;;;;;;;13.60;8.95;;;;;;;18.22;33.40;101145.75;5012189;28;20030;-78
2022/01/16 08:51:51;;;;;;;13.80;8.70;;;;;;;18.71;33.92;101156.53;5011193;28;20072;-79
2022/01/16 08:54:17;;;;;;;9.77;8.32;;;;;;;18.88;33.60;101151.38;5011792;28;20068;-79
2022/01/16 08:56:42;;;;;;;11.25;10.00;;;;;;;18.93;33.22;101148.16;5012149;28;20085;-83
2022/01/16 08:59:08;;;;;;;11.57;10.38;;;;;;;18.45;33.12;101153.94;5012168;28;20037;-82
2022/01/16 09:01:33;;;;;;;11.75;9.05;;;;;;;18.47;33.49;101151.53;5011545;28;20060;-84
2022/01/16 09:03:59;;;;;;;10.02;8.15;;;;;;;18.38;34.10;101149.06;5012135;28;20033;-85
2022/01/16 09:06:27;;;;;;;9.35;7.70;;;;;;;18.31;33.88;101149.81;5028647;28;20060;-83
2022/01/16 09:08:53;;;;;;;11.73;8.73;;;;;;;18.12;34.79;101163.38;5011535;28;20034;-83
2022/01/16 09:11:23;;;;;;;12.43;9.63;;;;;;;18.25;35.25;101165.47;5028909;28;20037;-82
2022/01/16 09:13:49;;;;;;;12.60;10.48;;;;;;;18.15;34.79;101160.56;5012639;28;20378;-83
2022/01/16 09:16:15;;;;;;;11.48;8.80;;;;;;;18.42;34.08;101177.25;5012341;28;20037;-82
2022/01/16 09:18:41;;;;;;;14.98;8.57;;;;;;;18.17;34.96;101186.34;5012254;28;20521;-79
2022/01/16 09:21:09;;;;;;;7.72;6.93;;;;;;;17.96;36.41;101184.16;5028971;28;20026;-84
2022/01/16 09:23:35;;;;;;;11.90;8.65;;;;;;;18.39;36.02;101180.88;5011924;28;20026;-82
2022/01/16 09:26:01;;;;;;;9.40;7.55;;;;;;;18.86;34.46;101173.53;5013838;28;20026;-81
2022/01/16 09:28:27;;;;;;;10.35;8.43;;;;;;;18.76;35.40;101183.53;5011878;28;20045;-82
2022/01/16 09:30:53;;;;;;;8.48;7.57;;;;;;;18.06;36.52;101179.84;5011312;28;20053;-82
2022/01/16 09:33:18;;;;;;;9.77;8.75;;;;;;;18.17;36.24;101172.28;5011512;28;20092;-77
2022/01/16 09:35:44;;;;;;;11.15;8.80;;;;;;;18.00;36.67;101162.50;5012581;28;20034;-80
2022/01/16 09:38:10;;;;;;;11.55;8.15;;;;;;;18.19;36.71;101178.31;5011759;28;20081;-80
2022/01/16 09:40:35;;;;;;;10.68;7.85;;;;;;;17.84;36.70;101158.31;5012130;28;20068;-80
2022/01/16 09:43:03;;;;;;;10.23;8.23;;;;;;;17.87;37.53;101180.06;5011549;28;20544;-80
2022/01/16 09:45:30;;;;;;;10.93;7.68;;;;;;;18.33;36.93;101172.78;5013434;28;20107;-80
2022/01/16 09:47:56;;;;;;;12.27;10.05;;;;;;;18.27;37.79;101170.75;5011421;28;20030;-80
2022/01/16 09:50:24;;;;;;;10.20;9.13;;;;;;;18.18;37.73;101178.72;5028454;28;20084;-80
2022/01/16 09:52:50;;;;;;;11.55;9.75;;;;;;;17.66;38.97;101175.81;5012906;28;20106;-80
2022/01/16 09:55:17;;;;;;;11.07;9.30;;;;;;;18.04;39.12;101168.94;5012821;28;20033;-78
2022/01/16 09:57:43;;;;;;;10.75;9.00;;;;;;;17.93;39.23;101181.31;5011417;28;20030;-82
2022/01/16 10:00:12;;;;;;;13.18;9.13;;;;;;;17.96;39.89;101177.72;5011697;28;20030;-81
2022/01/16 10:02:38;;;;;;;12.60;9.63;;;;;;;18.20;38.66;101182.75;5013270;28;20030;-79
2022/01/16 10:05:37;;;;;;;11.73;9.82;;;;;;;18.36;37.51;101145.03;5013214;28;20407;-81
2022/01/16 10:08:08;;;;;;;16.52;11.60;;;;;;;18.39;38.47;101170.41;5011661;28;20026;-79
2022/01/16 10:10:37;;;;;;;12.13;9.63;;;;;;;18.87;37.78;101155.41;5028416;28;20030;-78
2022/01/16 10:13:37;;;;;;;15.93;11.20;;;;;;;18.83;36.10;101163.84;5012973;28;20033;-78
2022/01/16 10:16:06;;;;;;;14.55;11.25;;;;;;;19.00;37.02;101154.63;5011800;28;20069;-78
2022/01/16 10:18:41;;;;;;;15.63;10.75;;;;;;;19.28;36.53;101155.94;5011858;28;20423;-78
2022/01/16 10:21:09;;;;;;;14.85;11.38;;;;;;;19.99;35.34;101144.75;5028841;28;20034;-79
2022/01/16 10:23:43;;;;;;;15.50;12.48;;;;;;;19.40;36.19;101157.59;5015689;28;20439;-86
2022/01/16 10:26:19;;;;;;;17.48;13.95;;;;;;;19.57;35.69;101153.97;5015771;28;20434;-85
2022/01/16 10:28:45;;;;;;;20.40;13.85;;;;;;;19.93;35.20;101157.69;5017014;28;20033;-85
2022/01/16 10:31:22;;;;;;;23.70;16.77;;;;;;;19.34;35.67;101137.44;5019858;28;20060;-86
2022/01/16 10:33:48;;;;;;;33.70;23.88;;;;;;;18.83;36.34;101146.91;5023644;28;20377;-86
2022/01/16 10:36:31;;;;;;;33.70;18.30;;;;;;;19.15;36.66;101147.03;5024277;28;20034;-87
2022/01/16 10:39:12;;;;;;;21.63;15.70;;;;;;;18.92;36.39;101127.63;5039978;28;20030;-86
2022/01/16 10:41:38;;;;;;;20.90;15.88;;;;;;;19.64;35.88;101122.97;5017700;28;20022;-86
2022/01/16 10:44:04;;;;;;;22.85;15.23;;;;;;;19.35;35.54;101133.41;5015550;28;20034;-86
2022/01/16 10:46:29;;;;;;;24.13;15.65;;;;;;;19.19;36.39;101141.41;5016549;28;20038;-85
2022/01/16 10:49:16;;;;;;;18.48;14.43;;;;;;;19.69;35.90;101141.53;5016212;28;20495;-85
2022/01/16 10:51:43;;;;;;;19.35;14.82;;;;;;;19.77;35.53;101135.50;5015852;28;20034;-85
2022/01/16 10:54:29;;;;;;;20.00;13.63;;;;;;;20.22;34.88;101135.84;5031892;28;20026;-84
2022/01/16 10:56:54;;;;;;;20.80;14.57;;;;;;;20.25;34.60;101137.88;5014582;28;20022;-85
2022/01/16 10:59:27;;;;;;;21.98;15.93;;;;;;;20.30;34.59;101129.00;5014714;28;20045;-86
2022/01/16 11:02:05;;;;;;;24.80;16.08;;;;;;;20.33;34.28;101127.34;5015619;28;20056;-85
2022/01/16 11:04:31;;;;;;;18.33;14.10;;;;;;;19.66;36.32;101126.22;5014360;28;20060;-85
2022/01/16 11:07:04;;;;;;;16.63;14.00;;;;;;;20.01;35.42;101142.34;5030954;28;20416;-87
2022/01/16 11:09:31;;;;;;;20.52;14.30;;;;;;;20.26;35.57;101131.00;5015311;28;20034;-87
2022/01/16 11:11:59;;;;;;;20.00;14.50;;;;;;;20.53;34.57;101127.75;5015092;28;20029;-87
2022/01/16 11:14:34;;;;;;;24.90;17.48;;;;;;;19.35;38.80;101134.19;5031589;28;20061;-87
2022/01/16 11:17:01;;;;;;;20.17;15.73;;;;;;;19.55;36.29;101126.16;5014654;28;20074;-86
2022/01/16 11:19:31;;;;;;;20.98;16.50;;;;;;;19.50;37.89;101125.75;5015463;28;20029;-85
2022/01/16 11:22:03;;;;;;;20.67;16.13;;;;;;;19.53;38.53;101139.06;5014213;28;20057;-86
2022/01/16 11:26:59;;;;;;;16.33;13.63;;;;;;;18.82;41.85;101129.19;5015291;28;20038;-86
2022/01/16 11:29:28;;;;;;;15.52;13.15;;;;;;;18.73;42.18;101114.66;5031716;28;20477;-86
2022/01/16 11:31:56;;;;;;;20.63;15.82;;;;;;;18.28;42.49;101125.25;4997578;28;20092;-86
2022/01/16 11:34:22;;;;;;;18.23;12.07;;;;;;;17.78;44.03;101138.16;5013889;28;20057;-86
2022/01/16 11:36:47;;;;;;;16.52;12.68;;;;;;;17.67;44.70;101118.31;5015498;28;20022;-86
2022/01/16 11:39:16;;;;;;;14.52;12.02;;;;;;;18.54;43.34;101134.69;5015081;28;20030;-86
2022/01/16 11:41:55;;;;;;;14.75;10.85;;;;;;;18.46;43.42;101125.34;5015150;28;20416;-86
2022/01/16 11:44:23;;;;;;;10.63;8.30;;;;;;;18.20;43.68;101132.03;5030204;28;20030;-86
2022/01/16 11:46:51;;;;;;;9.25;7.65;;;;;;;18.17;43.10;101120.78;5013514;28;20041;-86
2022/01/16 11:49:30;;;;;;;11.05;8.75;;;;;;;18.19;43.25;101133.25;5013633;28;20065;-86
2022/01/16 11:52:02;;;;;;;9.30;7.38;;;;;;;17.75;43.86;101131.31;5013867;28;20025;-87
2022/01/16 11:54:34;;;;;;;6.75;5.57;;;;;;;18.14;41.69;101121.53;5013814;28;20034;-88
2022/01/16 11:57:05;;;;;;;12.32;6.70;;;;;;;18.21;42.38;101105.47;5014159;28;20033;-87
2022/01/16 11:59:30;;;;;;;9.65;7.68;;;;;;;18.07;43.48;101127.94;5015241;28;20033;-87
2022/01/16 12:02:08;;;;;;;9.77;8.32;;;;;;;18.14;43.28;101127.16;5030169;28;20022;-87
2022/01/16 12:04:33;;;;;;;9.63;7.72;;;;;;;18.10;43.55;101124.31;5030004;28;20041;-86
2022/01/16 12:07:20;;;;;;;10.98;7.60;;;;;;;18.08;43.20;101095.75;5015002;28;20034;-85